Time;durP1;ratioP1;P1;durP2;ratioP2;P2;SDS_P1;SDS_P2;PMS_P1;PMS_P2;Temp;Humidity;BMP_temperature;BMP_pressure;BME280_temperature;BME280_humidity;BME280_pressure;Samples;Min_cycle;Max_cycle;Signal;HPM_P1;HPM_P2
2022/12/14 00:00:14;;;;;;;1.17;1.17;;;-1.40;99.90;;;;;;5030311;28;20381;-64
2022/12/14 00:02:40;;;;;;;11.55;3.22;;;-1.40;99.90;;;;;;5030111;28;20095;-64
2022/12/14 00:05:06;;;;;;;0.95;0.95;;;-1.50;99.90;;;;;;5030013;28;20034;-64
2022/12/14 00:07:31;;;;;;;2.05;1.95;;;-1.50;99.90;;;;;;5025672;28;20183;-63
2022/12/14 00:09:57;;;;;;;0.70;0.70;;;-1.60;99.90;;;;;;5030797;28;20084;-63
2022/12/14 00:12:22;;;;;;;0.40;0.40;;;-1.60;99.90;;;;;;5030430;28;20059;-64
2022/12/14 00:14:48;;;;;;;2.63;2.42;;;-1.50;99.90;;;;;;5026806;28;20037;-64
2022/12/14 00:17:14;;;;;;;1.45;1.10;;;-1.50;99.90;;;;;;5030225;28;20048;-63
2022/12/14 00:19:40;;;;;;;0.52;0.52;;;-1.50;99.90;;;;;;5030500;28;20041;-64
2022/12/14 00:22:05;;;;;;;1.65;0.90;;;-1.50;99.90;;;;;;5030921;28;20049;-64
2022/12/14 00:24:31;;;;;;;0.70;0.70;;;-1.60;99.90;;;;;;5027630;28;21909;-64
2022/12/14 00:26:56;;;;;;;0.50;0.50;;;-1.60;99.90;;;;;;5030859;28;20041;-64
2022/12/14 00:29:22;;;;;;;5.68;4.70;;;-1.60;99.90;;;;;;5027811;28;20042;-64
2022/12/14 00:31:48;;;;;;;2.40;1.85;;;-1.60;99.90;;;;;;5022512;28;20049;-64
2022/12/14 00:34:14;;;;;;;1.33;1.23;;;-1.60;99.90;;;;;;5031141;28;20053;-63
2022/12/14 00:36:39;;;;;;;0.70;0.70;;;-1.60;99.90;;;;;;5027800;28;20042;-64
2022/12/14 00:39:05;;;;;;;1.00;1.00;;;-1.60;99.90;;;;;;5030069;28;20452;-63
2022/12/14 00:41:30;;;;;;;1.75;1.65;;;-1.60;99.90;;;;;;5029360;28;20067;-64
2022/12/14 00:43:56;;;;;;;3.13;1.02;;;-1.60;99.90;;;;;;5030908;28;20076;-64
2022/12/14 00:46:22;;;;;;;3.03;2.83;;;-1.60;99.90;;;;;;5029342;28;20057;-63
2022/12/14 00:48:47;;;;;;;1.52;1.42;;;-1.60;99.90;;;;;;5030672;28;20045;-63
2022/12/14 00:51:13;;;;;;;0.63;0.63;;;-1.60;99.90;;;;;;5028345;28;20043;-63
2022/12/14 00:53:39;;;;;;;1.17;1.15;;;-1.60;99.90;;;;;;5030375;28;20037;-64
2022/12/14 00:56:06;;;;;;;8.55;4.60;;;-1.60;99.90;;;;;;5027409;28;20181;-63
2022/12/14 00:58:32;;;;;;;1.02;1.02;;;-1.60;99.90;;;;;;5028523;28;20099;-63
2022/12/14 01:01:04;;;;;;;0.98;0.60;;;-1.60;99.90;;;;;;5030278;28;20053;-63
2022/12/14 01:03:30;;;;;;;2.30;1.67;;;-1.60;99.90;;;;;;5029519;28;20504;-64
2022/12/14 01:05:56;;;;;;;0.30;0.30;;;-1.60;99.90;;;;;;5028489;28;20046;-63
2022/12/14 01:08:22;;;;;;;6.50;2.05;;;-1.70;99.90;;;;;;5030012;28;20482;-64
2022/12/14 01:10:47;;;;;;;2.72;2.50;;;-1.70;99.90;;;;;;5029785;28;20655;-63
2022/12/14 01:13:13;;;;;;;0.63;0.63;;;-1.70;99.90;;;;;;5028228;28;20041;-64
2022/12/14 01:15:38;;;;;;;1.02;1.02;;;-1.60;99.90;;;;;;5028377;28;20073;-63
2022/12/14 01:18:04;;;;;;;1.65;1.63;;;-1.70;99.90;;;;;;5029311;28;20081;-64
2022/12/14 01:20:30;;;;;;;0.65;0.65;;;-1.70;99.90;;;;;;5029407;28;20053;-64
2022/12/14 01:22:55;;;;;;;2.35;2.15;;;-1.70;99.90;;;;;;5030232;28;20603;-63
2022/12/14 01:25:21;;;;;;;0.93;0.93;;;-1.70;99.90;;;;;;5028443;28;20616;-64
2022/12/14 01:27:47;;;;;;;1.58;1.50;;;-1.70;99.90;;;;;;5026300;28;20052;-63
2022/12/14 01:30:12;;;;;;;0.57;0.57;;;-1.70;99.90;;;;;;5029234;28;20042;-63
2022/12/14 01:32:38;;;;;;;0.95;0.95;;;-1.70;99.90;;;;;;5028435;28;20045;-64
2022/12/14 01:35:04;;;;;;;1.90;0.95;;;-1.70;99.90;;;;;;5027205;28;20069;-63
2022/12/14 01:37:29;;;;;;;0.28;0.28;;;-1.80;99.90;;;;;;5029632;28;20417;-63
2022/12/14 01:39:55;;;;;;;0.93;0.93;;;-1.70;99.90;;;;;;5021892;28;20041;-64
2022/12/14 01:42:21;;;;;;;0.28;0.28;;;-1.80;99.90;;;;;;5029086;28;20117;-63
2022/12/14 01:44:54;;;;;;;0.75;0.75;;;-1.80;99.90;;;;;;5028217;28;20038;-63
2022/12/14 01:47:38;;;;;;;3.15;2.90;;;-1.80;99.90;;;;;;5028011;28;20604;-63
2022/12/14 01:50:20;;;;;;;2.05;1.85;;;-1.80;99.90;;;;;;5024946;28;20059;-63
2022/12/14 01:52:48;;;;;;;0.85;0.85;;;-1.80;99.90;;;;;;5028443;28;20437;-64
2022/12/14 01:55:41;;;;;;;0.22;0.22;;;-1.80;99.90;;;;;;5027173;28;20497;-63
2022/12/14 01:58:12;;;;;;;0.30;0.30;;;-1.80;99.90;;;;;;5020566;28;20476;-63
2022/12/14 02:00:38;;;;;;;3.33;2.35;;;-1.90;99.90;;;;;;5029144;28;20053;-63
2022/12/14 02:03:09;;;;;;;0.22;0.22;;;-1.90;99.90;;;;;;5028773;28;20099;-63
2022/12/14 02:05:40;;;;;;;1.55;1.50;;;-2.00;99.90;;;;;;5025316;28;20049;-63
2022/12/14 02:08:06;;;;;;;0.40;0.40;;;-1.90;99.90;;;;;;5027087;28;20057;-64
2022/12/14 02:10:33;;;;;;;2.92;1.83;;;-1.90;99.90;;;;;;5026512;28;20049;-63
2022/12/14 02:13:08;;;;;;;1.10;1.10;;;-2.00;99.90;;;;;;5028398;28;20038;-63
2022/12/14 02:15:36;;;;;;;0.35;0.35;;;-1.90;99.90;;;;;;5027155;28;20068;-63
2022/12/14 02:18:04;;;;;;;2.17;1.83;;;-1.90;99.90;;;;;;5027431;28;20049;-63
2022/12/14 02:20:43;;;;;;;0.85;0.85;;;-2.00;99.90;;;;;;5027425;28;20046;-64
2022/12/14 02:23:14;;;;;;;1.60;1.50;;;-2.00;99.90;;;;;;5028553;28;20551;-63
2022/12/14 02:25:59;;;;;;;3.63;3.40;;;-2.00;99.90;;;;;;5024502;28;20370;-63
2022/12/14 02:28:45;;;;;;;1.83;1.73;;;-2.00;99.90;;;;;;5025387;28;20050;-63
2022/12/14 02:31:20;;;;;;;2.10;1.95;;;-2.00;99.90;;;;;;4990894;28;20053;-63
2022/12/14 02:34:11;;;;;;;1.05;1.05;;;-2.10;99.90;;;;;;5028645;28;20049;-63
2022/12/14 02:36:48;;;;;;;1.83;1.75;;;-2.10;99.90;;;;;;5025074;28;20094;-63
2022/12/14 02:39:39;;;;;;;0.88;0.88;;;-2.10;99.90;;;;;;5028396;28;20045;-63
2022/12/14 02:42:24;;;;;;;0.63;0.63;;;-2.10;99.90;;;;;;5027643;28;20516;-63
2022/12/14 02:45:22;;;;;;;5.72;3.50;;;-2.10;99.90;;;;;;5026802;28;20058;-63
2022/12/14 02:47:59;;;;;;;0.30;0.30;;;-2.10;99.90;;;;;;5025005;28;20096;-63
2022/12/14 02:50:30;;;;;;;1.33;1.33;;;-2.10;99.90;;;;;;5008834;28;20140;-63
2022/12/14 02:53:05;;;;;;;3.35;3.05;;;-2.10;99.90;;;;;;5024106;28;20424;-63
2022/12/14 02:55:37;;;;;;;0.40;0.40;;;-2.10;99.90;;;;;;5025936;28;20041;-63
2022/12/14 02:58:09;;;;;;;0.80;0.75;;;-2.10;99.90;;;;;;4998549;28;20049;-62
2022/12/14 03:00:37;;;;;;;0.75;0.75;;;-2.10;99.90;;;;;;5027401;28;20141;-63
2022/12/14 03:03:04;;;;;;;1.27;0.80;;;-2.20;99.90;;;;;;5024185;28;20049;-63
2022/12/14 03:05:30;;;;;;;0.30;0.30;;;-2.20;99.90;;;;;;5026793;28;20060;-63
2022/12/14 03:08:00;;;;;;;0.55;0.55;;;-2.20;99.90;;;;;;5027515;28;20045;-63
2022/12/14 03:10:51;;;;;;;0.70;0.70;;;-2.20;99.90;;;;;;5025774;28;20076;-63
2022/12/14 03:13:24;;;;;;;1.10;1.10;;;-2.20;99.90;;;;;;5006695;28;20062;-63
2022/12/14 03:16:12;;;;;;;2.35;2.13;;;-2.20;99.90;;;;;;5028138;28;20425;-63
2022/12/14 03:18:43;;;;;;;0.35;0.35;;;-2.30;99.90;;;;;;5025493;28;20049;-63
2022/12/14 03:21:14;;;;;;;0.88;0.88;;;-2.20;99.90;;;;;;5026371;28;20523;-63
2022/12/14 03:23:47;;;;;;;10.45;3.03;;;-2.30;99.90;;;;;;5027058;28;20037;-62
2022/12/14 03:26:26;;;;;;;0.43;0.43;;;-2.30;99.90;;;;;;5027821;28;20045;-63
2022/12/14 03:29:22;;;;;;;1.17;0.85;;;-2.30;99.90;;;;;;5006376;28;20046;-63
2022/12/14 03:32:10;;;;;;;0.82;0.82;;;-2.30;99.90;;;;;;5014878;28;20128;-63
2022/12/14 03:34:48;;;;;;;0.88;0.88;;;-2.30;99.90;;;;;;5015271;28;20060;-63
2022/12/14 03:37:33;;;;;;;0.20;0.20;;;-2.30;99.90;;;;;;5025761;28;20461;-63
2022/12/14 03:39:58;;;;;;;0.70;0.70;;;-2.30;99.90;;;;;;5023290;28;20068;-63
2022/12/14 03:42:39;;;;;;;0.60;0.60;;;-2.40;99.90;;;;;;5028209;28;20037;-63
2022/12/14 03:45:19;;;;;;;0.50;0.50;;;-2.40;99.90;;;;;;5026540;28;20080;-63
2022/12/14 03:48:09;;;;;;;1.15;1.15;;;-2.40;99.90;;;;;;5023063;28;20054;-63
2022/12/14 03:51:10;;;;;;;0.80;0.80;;;-2.40;99.90;;;;;;5020992;28;20074;-63
2022/12/14 03:53:40;;;;;;;1.02;1.02;;;-2.40;99.90;;;;;;5026322;28;20192;-63
2022/12/14 03:56:15;;;;;;;2.65;1.52;;;-2.40;99.90;;;;;;5026464;28;20506;-63
2022/12/14 03:59:04;;;;;;;0.47;0.47;;;-2.40;99.90;;;;;;5027743;28;20049;-63
2022/12/14 04:01:47;;;;;;;0.70;0.70;;;-2.40;99.90;;;;;;5024460;28;20607;-63
2022/12/14 04:04:52;;;;;;;0.53;0.53;;;-2.40;99.90;;;;;;5027263;28;20044;-63
2022/12/14 04:07:24;;;;;;;;;;;-2.50;99.90;;;;;;5020300;28;20061;-63
2022/12/14 04:18:55;;;;;;;0.30;0.30;;;-2.50;99.90;;;;;;5027837;28;19979;-63
2022/12/14 04:21:46;;;;;;;2.53;2.33;;;-2.50;99.90;;;;;;5030724;28;20068;-63
2022/12/14 04:27:38;;;;;;;1.08;1.08;;;-2.60;99.90;;;;;;5029604;28;20045;-63
2022/12/14 04:30:06;;;;;;;1.00;1.00;;;-2.60;99.90;;;;;;5028886;28;20567;-63
2022/12/14 04:32:47;;;;;;;0.80;0.80;;;-2.60;99.90;;;;;;5029690;28;20045;-63
2022/12/14 04:35:22;;;;;;;0.63;0.63;;;-2.70;99.90;;;;;;5027942;28;20235;-63
2022/12/14 04:38:19;;;;;;;2.88;2.65;;;-2.60;99.90;;;;;;5021192;28;20116;-63
2022/12/14 04:40:52;;;;;;;3.67;2.90;;;-2.70;99.90;;;;;;5006580;28;20049;-63
2022/12/14 04:43:22;;;;;;;0.20;0.20;;;-2.70;99.90;;;;;;5023540;28;20736;-63
2022/12/14 04:45:54;;;;;;;0.40;0.40;;;-2.70;99.90;;;;;;5014912;28;20070;-63
2022/12/14 04:48:30;;;;;;;0.65;0.50;;;-2.70;99.90;;;;;;5006763;28;20580;-62
2022/12/14 04:51:23;;;;;;;2.00;1.02;;;-2.70;99.90;;;;;;5008797;28;20078;-63
2022/12/14 04:53:54;;;;;;;0.40;0.40;;;-2.70;99.90;;;;;;5009993;28;20046;-63
2022/12/14 04:56:29;;;;;;;0.63;0.63;;;-2.70;99.90;;;;;;5009898;28;20033;-63
2022/12/14 04:58:55;;;;;;;1.58;1.48;;;-2.70;99.90;;;;;;5009109;28;20481;-63
2022/12/14 05:01:27;;;;;;;1.52;1.42;;;-2.70;99.90;;;;;;5008081;28;20041;-63
2022/12/14 05:04:02;;;;;;;1.67;1.58;;;-2.70;99.90;;;;;;5009367;28;20046;-63
2022/12/14 05:06:41;;;;;;;0.85;0.85;;;-2.80;99.90;;;;;;5008658;28;20049;-63
2022/12/14 05:09:33;;;;;;;7.65;3.63;;;-2.70;99.90;;;;;;5009231;28;20088;-63
2022/12/14 05:12:13;;;;;;;0.75;0.75;;;-2.70;99.90;;;;;;5009905;28;20049;-63
2022/12/14 05:14:54;;;;;;;6.03;4.40;;;-2.80;99.90;;;;;;5005886;28;20046;-63
2022/12/14 05:17:20;;;;;;;0.60;0.60;;;-2.80;99.90;;;;;;5009153;28;20041;-63
2022/12/14 05:19:49;;;;;;;2.45;2.25;;;-2.80;99.90;;;;;;5009158;28;20037;-63
2022/12/14 05:22:16;;;;;;;0.40;0.40;;;-2.80;99.90;;;;;;5009733;28;20088;-63
2022/12/14 05:24:42;;;;;;;0.50;0.50;;;-2.80;99.90;;;;;;4988480;28;20726;-63
2022/12/14 05:27:07;;;;;;;2.83;2.63;;;-2.80;99.90;;;;;;5001665;28;20046;-63
2022/12/14 05:29:33;;;;;;;0.43;0.43;;;-2.80;99.90;;;;;;5008738;28;20038;-63
2022/12/14 05:31:59;;;;;;;4.85;2.50;;;-2.80;99.90;;;;;;5007819;28;20049;-63
2022/12/14 05:34:25;;;;;;;1.88;1.55;;;-2.90;99.90;;;;;;5008708;28;20041;-63
2022/12/14 05:36:51;;;;;;;0.73;0.73;;;-2.80;99.90;;;;;;5009135;28;20046;-63
2022/12/14 05:39:16;;;;;;;0.70;0.70;;;-2.80;99.90;;;;;;5006841;28;20057;-63
2022/12/14 05:41:43;;;;;;;0.60;0.60;;;-2.80;99.90;;;;;;5009099;28;20540;-63
2022/12/14 05:44:08;;;;;;;0.65;0.65;;;-2.80;99.90;;;;;;5009550;28;20042;-63
2022/12/14 05:46:34;;;;;;;2.50;2.40;;;-2.80;99.90;;;;;;5028012;28;20402;-63
2022/12/14 05:48:59;;;;;;;1.17;1.17;;;-2.80;99.90;;;;;;5029522;28;20064;-63
2022/12/14 05:51:25;;;;;;;0.70;0.70;;;-2.80;99.90;;;;;;5025240;28;20041;-63
2022/12/14 05:53:51;;;;;;;0.68;0.68;;;-2.80;99.90;;;;;;5026892;28;20606;-63
2022/12/14 05:56:16;;;;;;;4.30;3.92;;;-2.90;99.90;;;;;;5028907;28;20489;-63
2022/12/14 05:58:42;;;;;;;4.57;4.20;;;-2.90;99.90;;;;;;5027715;28;20050;-63
2022/12/14 06:01:10;;;;;;;2.58;2.40;;;-2.90;99.90;;;;;;5022594;28;20053;-63
2022/12/14 06:03:36;;;;;;;2.28;2.08;;;-3.00;99.90;;;;;;5024077;28;20072;-63
2022/12/14 06:06:06;;;;;;;6.07;2.80;;;-3.00;99.90;;;;;;5026019;28;20476;-63
2022/12/14 06:08:34;;;;;;;1.40;1.38;;;-3.00;99.90;;;;;;5027338;28;20080;-63
2022/12/14 06:11:02;;;;;;;2.17;2.08;;;-3.00;99.90;;;;;;5029037;28;20041;-63
2022/12/14 06:13:27;;;;;;;3.28;3.08;;;-3.00;99.90;;;;;;5028230;28;20046;-63
2022/12/14 06:15:53;;;;;;;0.47;0.47;;;-3.00;99.90;;;;;;5026302;28;20041;-63
2022/12/14 06:18:18;;;;;;;1.00;1.00;;;-3.00;99.90;;;;;;5028518;28;20032;-63
2022/12/14 06:20:44;;;;;;;4.85;4.45;;;-2.90;99.90;;;;;;5027296;28;20111;-63
2022/12/14 06:23:09;;;;;;;0.20;0.20;;;-2.90;99.90;;;;;;5027341;28;20045;-63
2022/12/14 06:25:35;;;;;;;1.50;1.45;;;-3.00;99.90;;;;;;5025546;28;20732;-63
2022/12/14 06:28:00;;;;;;;3.25;1.45;;;-3.00;99.90;;;;;;5027897;28;20065;-63
2022/12/14 06:30:27;;;;;;;1.52;1.35;;;-3.10;99.90;;;;;;5025456;28;20045;-63
2022/12/14 06:32:52;;;;;;;0.80;0.80;;;-3.10;99.90;;;;;;5028309;28;20049;-63
2022/12/14 06:35:18;;;;;;;0.32;0.32;;;-3.10;99.90;;;;;;5026713;28;20401;-63
2022/12/14 06:37:44;;;;;;;2.22;2.05;;;-3.10;99.90;;;;;;5025255;28;20128;-63
2022/12/14 06:40:10;;;;;;;0.25;0.25;;;-3.10;99.90;;;;;;5027783;28;20037;-63
2022/12/14 06:42:35;;;;;;;1.60;1.50;;;-3.10;99.90;;;;;;5026636;28;20488;-63
2022/12/14 06:45:01;;;;;;;0.73;0.73;;;-3.10;99.90;;;;;;5021423;28;20060;-63
2022/12/14 06:47:27;;;;;;;1.77;1.65;;;-3.10;99.90;;;;;;5028318;28;20080;-66
2022/12/14 06:49:52;;;;;;;0.40;0.40;;;-3.10;99.90;;;;;;5023500;28;20124;-63
2022/12/14 06:52:18;;;;;;;0.47;0.47;;;-3.10;99.90;;;;;;5028331;28;20120;-62
2022/12/14 06:54:43;;;;;;;0.20;0.20;;;-3.10;99.90;;;;;;5025110;28;20042;-63
2022/12/14 06:57:09;;;;;;;0.20;0.20;;;-3.10;99.90;;;;;;5023816;28;20608;-63
2022/12/14 06:59:34;;;;;;;6.22;2.35;;;-3.00;99.90;;;;;;5024676;28;20451;-64
2022/12/14 07:02:00;;;;;;;1.42;1.33;;;-3.00;99.90;;;;;;5028120;28;20046;-63
2022/12/14 07:04:25;;;;;;;5.75;2.28;;;-3.10;99.90;;;;;;5025584;28;20037;-63
2022/12/14 07:06:51;;;;;;;0.85;0.80;;;-3.10;99.90;;;;;;5023582;28;20054;-63
2022/12/14 07:09:17;;;;;;;0.20;0.20;;;-3.10;99.90;;;;;;5026631;28;20771;-64
2022/12/14 07:11:42;;;;;;;21.35;4.50;;;-3.00;99.90;;;;;;5025080;28;20049;-63
2022/12/14 07:14:14;;;;;;;0.20;0.20;;;-3.00;99.90;;;;;;5026169;28;20033;-64
2022/12/14 07:16:40;;;;;;;1.45;1.35;;;-3.00;99.90;;;;;;5027235;28;20152;-63
2022/12/14 07:19:05;;;;;;;3.15;2.95;;;-3.00;99.90;;;;;;5025448;28;20899;-63
2022/12/14 07:21:31;;;;;;;0.30;0.30;;;-3.00;99.90;;;;;;4994516;28;20044;-62
2022/12/14 07:23:59;;;;;;;0.50;0.50;;;-3.00;99.90;;;;;;5027204;28;20470;-62
2022/12/14 07:26:26;;;;;;;4.03;3.13;;;-3.00;99.90;;;;;;5022618;28;20037;-62
2022/12/14 07:28:52;;;;;;;1.42;1.33;;;-3.00;99.90;;;;;;5024470;28;20095;-62
2022/12/14 07:31:26;;;;;;;4.32;1.27;;;-3.00;99.90;;;;;;5026108;28;20047;-62
2022/12/14 07:33:55;;;;;;;1.55;1.48;;;-3.00;99.90;;;;;;5024978;28;20040;-63
2022/12/14 07:36:21;;;;;;;0.60;0.60;;;-3.00;99.90;;;;;;5023422;28;20164;-63
2022/12/14 07:38:49;;;;;;;1.55;1.50;;;-3.00;99.90;;;;;;5026850;28;20041;-63
2022/12/14 07:41:17;;;;;;;0.77;0.77;;;-3.00;99.90;;;;;;5028779;28;20045;-63
2022/12/14 07:43:43;;;;;;;0.22;0.22;;;-3.00;99.90;;;;;;5031577;28;20091;-63
2022/12/14 07:46:12;;;;;;;1.02;1.02;;;-3.00;99.90;;;;;;5026497;28;20057;-63
2022/12/14 07:48:38;;;;;;;0.38;0.38;;;-3.10;99.90;;;;;;5030151;28;20088;-63
2022/12/14 07:51:06;;;;;;;1.80;1.67;;;-3.00;99.90;;;;;;5029554;28;20068;-63
2022/12/14 07:53:32;;;;;;;0.50;0.50;;;-3.00;99.90;;;;;;5031527;28;20052;-63
2022/12/14 07:56:06;;;;;;;0.60;0.60;;;-3.00;99.90;;;;;;5029763;28;20045;-63
2022/12/14 07:58:33;;;;;;;1.10;1.10;;;-3.00;99.90;;;;;;5030827;28;20374;-62
2022/12/14 08:01:16;;;;;;;1.08;1.05;;;-3.00;99.90;;;;;;5030469;28;20680;-63
2022/12/14 08:03:49;;;;;;;0.30;0.30;;;-3.00;99.90;;;;;;5028194;28;20042;-63
2022/12/14 08:06:17;;;;;;;2.42;2.28;;;-3.10;99.90;;;;;;5029949;28;20037;-63
2022/12/14 08:08:43;;;;;;;2.92;2.67;;;-3.00;99.90;;;;;;5029357;28;20525;-63
2022/12/14 08:11:09;;;;;;;0.85;0.85;;;-3.00;99.90;;;;;;5031567;28;20271;-63
2022/12/14 08:13:37;;;;;;;0.85;0.85;;;-3.10;99.90;;;;;;5031057;28;20041;-63
2022/12/14 08:16:04;;;;;;;1.00;0.98;;;-3.10;99.90;;;;;;5028928;28;20053;-63
2022/12/14 08:18:32;;;;;;;1.75;1.65;;;-3.10;99.90;;;;;;5030386;28;20053;-63
2022/12/14 08:20:57;;;;;;;1.67;1.10;;;-3.10;99.90;;;;;;5031140;28;20054;-63
2022/12/14 08:23:23;;;;;;;0.60;0.60;;;-3.10;99.90;;;;;;5030073;28;20053;-63
2022/12/14 08:25:56;;;;;;;2.78;2.58;;;-3.00;99.90;;;;;;5030478;28;20485;-63
2022/12/14 08:28:24;;;;;;;0.47;0.47;;;-3.00;99.90;;;;;;5029961;28;20124;-63
2022/12/14 08:30:50;;;;;;;0.38;0.38;;;-2.90;99.90;;;;;;5029036;28;20049;-63
2022/12/14 08:33:17;;;;;;;0.93;0.93;;;-2.90;99.90;;;;;;5023677;28;20685;-63
2022/12/14 08:35:43;;;;;;;1.42;1.33;;;-2.90;99.90;;;;;;5029039;28;20049;-63
2022/12/14 08:38:09;;;;;;;0.30;0.30;;;-2.90;99.90;;;;;;5030766;28;20041;-63
2022/12/14 08:40:35;;;;;;;2.80;2.15;;;-3.00;99.90;;;;;;5029944;28;20532;-63
2022/12/14 08:43:01;;;;;;;6.60;1.70;;;-3.00;99.90;;;;;;5028511;28;20504;-63
2022/12/14 08:45:26;;;;;;;0.65;0.65;;;-2.90;99.90;;;;;;5028537;28;20485;-63
2022/12/14 08:47:52;;;;;;;0.28;0.28;;;-2.90;99.90;;;;;;5030861;28;20053;-63
2022/12/14 08:50:18;;;;;;;3.53;3.03;;;-2.80;99.90;;;;;;5029588;28;20052;-63
2022/12/14 08:52:47;;;;;;;0.60;0.60;;;-2.80;99.90;;;;;;5027594;28;20042;-63
2022/12/14 08:55:13;;;;;;;3.42;3.13;;;-2.80;99.90;;;;;;5028881;28;20481;-63
2022/12/14 08:57:38;;;;;;;3.00;2.70;;;-2.80;99.90;;;;;;5029911;28;20053;-63
2022/12/14 09:00:05;;;;;;;4.80;3.10;;;-2.70;99.90;;;;;;5028819;28;20049;-63
2022/12/14 09:02:31;;;;;;;0.80;0.80;;;-2.60;99.90;;;;;;5030320;28;20048;-63
2022/12/14 09:04:56;;;;;;;1.80;1.70;;;-2.60;99.90;;;;;;5026038;28;20045;-63
2022/12/14 09:07:22;;;;;;;2.05;1.95;;;-2.60;99.90;;;;;;5028431;28;20559;-63
2022/12/14 09:09:47;;;;;;;0.75;0.75;;;-2.50;99.90;;;;;;5027532;28;20048;-63
2022/12/14 09:12:13;;;;;;;0.40;0.40;;;-2.50;99.90;;;;;;5029294;28;20469;-63
2022/12/14 09:14:38;;;;;;;0.38;0.38;;;-2.50;99.90;;;;;;5029799;28;20061;-63
2022/12/14 09:17:04;;;;;;;1.08;1.08;;;-2.40;99.90;;;;;;5024822;28;20144;-63
2022/12/14 09:19:30;;;;;;;0.30;0.30;;;-2.30;99.90;;;;;;5027966;28;20096;-63
2022/12/14 09:21:55;;;;;;;0.32;0.32;;;-2.30;99.90;;;;;;5042877;28;20041;-63
2022/12/14 09:24:23;;;;;;;0.22;0.22;;;-2.30;99.90;;;;;;5030031;28;20111;-63
2022/12/14 09:26:49;;;;;;;2.45;1.95;;;-2.20;99.90;;;;;;5028042;28;20045;-63
2022/12/14 09:29:17;;;;;;;0.82;0.82;;;-2.20;99.90;;;;;;5029702;28;20053;-63
2022/12/14 09:31:43;;;;;;;3.10;2.90;;;-2.10;99.90;;;;;;5026357;28;20373;-63
2022/12/14 09:34:09;;;;;;;1.17;1.17;;;-2.10;99.90;;;;;;5029687;28;20477;-63
2022/12/14 09:36:35;;;;;;;2.22;2.08;;;-2.10;99.90;;;;;;5026251;28;20069;-62
2022/12/14 09:39:01;;;;;;;0.40;0.40;;;-2.00;99.90;;;;;;5028636;28;20540;-63
2022/12/14 09:41:33;;;;;;;0.90;0.90;;;-2.10;99.90;;;;;;5029949;28;20045;-63
2022/12/14 09:44:23;;;;;;;0.20;0.20;;;-2.00;99.90;;;;;;5030113;28;20041;-62
2022/12/14 09:47:06;;;;;;;1.75;1.65;;;-1.90;99.90;;;;;;5023051;28;20049;-63
2022/12/14 09:49:54;;;;;;;0.57;0.57;;;-1.80;99.90;;;;;;5029746;28;20151;-63
2022/12/14 09:52:34;;;;;;;0.65;0.65;;;-1.80;99.90;;;;;;5027050;28;20045;-62
2022/12/14 09:55:04;;;;;;;0.32;0.32;;;-1.70;99.90;;;;;;5028479;28;20037;-63
2022/12/14 09:57:36;;;;;;;0.57;0.57;;;-1.70;99.90;;;;;;5029775;28;20060;-62
2022/12/14 10:00:10;;;;;;;0.95;0.95;;;-1.60;99.90;;;;;;5026093;28;20415;-63
2022/12/14 10:03:08;;;;;;;6.22;3.03;;;-1.50;99.90;;;;;;5029066;28;20382;-63
2022/12/14 10:05:41;;;;;;;1.75;1.65;;;-1.40;99.90;;;;;;5026010;28;20045;-63
2022/12/14 10:08:45;;;;;;;0.82;0.82;;;-1.30;99.90;;;;;;5025345;28;20057;-63
2022/12/14 10:11:31;;;;;;;0.43;0.43;;;-1.30;99.90;;;;;;5015427;28;20061;-63
2022/12/14 10:14:26;;;;;;;0.88;0.88;;;-1.20;99.90;;;;;;5024375;28;20091;-63
2022/12/14 10:17:09;;;;;;;0.73;0.73;;;-1.10;99.90;;;;;;5023397;28;20378;-63
2022/12/14 10:19:40;;;;;;;1.95;1.85;;;-1.00;99.90;;;;;;5017301;28;20140;-63
2022/12/14 10:22:19;;;;;;;1.58;1.48;;;-1.00;99.90;;;;;;5028158;28;20100;-63
2022/12/14 10:25:05;;;;;;;4.13;1.58;;;-1.00;99.90;;;;;;5025632;28;20087;-63
2022/12/14 10:27:33;;;;;;;0.20;0.20;;;-0.90;99.90;;;;;;5026477;28;20076;-63
2022/12/14 10:30:03;;;;;;;0.40;0.40;;;-1.00;99.90;;;;;;5025206;28;20060;-63
2022/12/14 10:32:38;;;;;;;7.32;1.20;;;-1.00;99.90;;;;;;5024613;28;20052;-63
2022/12/14 10:35:14;;;;;;;0.25;0.25;;;-0.90;99.90;;;;;;5021779;28;20680;-62
2022/12/14 10:37:47;;;;;;;0.22;0.22;;;-0.80;99.90;;;;;;5026895;28;20500;-62
2022/12/14 10:40:29;;;;;;;0.43;0.43;;;-0.70;99.90;;;;;;5029015;28;20576;-63
2022/12/14 10:43:13;;;;;;;0.30;0.30;;;-0.60;99.90;;;;;;5027163;28;20045;-63
2022/12/14 10:45:52;;;;;;;0.40;0.40;;;-0.60;99.90;;;;;;5028333;28;20639;-63
2022/12/14 10:48:23;;;;;;;0.50;0.50;;;-0.50;99.90;;;;;;5028643;28;20042;-63
2022/12/14 10:51:01;;;;;;;9.32;2.80;;;-0.50;99.90;;;;;;5025171;28;20046;-63
2022/12/14 10:53:36;;;;;;;1.58;1.48;;;-0.50;99.90;;;;;;5028580;28;20052;-62
2022/12/14 10:56:07;;;;;;;0.45;0.45;;;-0.40;99.90;;;;;;5024966;28;20111;-62
2022/12/14 10:58:33;;;;;;;0.40;0.40;;;-0.40;99.90;;;;;;5025980;28;20038;-63
2022/12/14 11:00:59;;;;;;;0.30;0.30;;;-0.30;99.90;;;;;;5028313;28;20179;-63
2022/12/14 11:03:25;;;;;;;1.17;1.17;;;-0.30;99.90;;;;;;5041727;28;20056;-63
2022/12/14 11:05:55;;;;;;;1.13;1.13;;;-0.40;99.90;;;;;;5027351;28;20041;-63
2022/12/14 11:08:47;;;;;;;0.20;0.20;;;-0.50;99.90;;;;;;5026775;28;20041;-63
2022/12/14 11:11:20;;;;;;;0.55;0.50;;;-0.40;99.90;;;;;;5022741;28;20040;-63
2022/12/14 11:13:53;;;;;;;0.60;0.57;;;-0.40;99.90;;;;;;5018395;28;20760;-63
2022/12/14 11:16:40;;;;;;;0.82;0.82;;;-0.40;99.90;;;;;;5026606;28;20497;-63
2022/12/14 11:19:15;;;;;;;0.50;0.50;;;-0.40;99.90;;;;;;5025795;28;20281;-63
2022/12/14 11:21:41;;;;;;;0.65;0.65;;;-0.30;99.90;;;;;;5025221;28;20045;-63
2022/12/14 11:24:19;;;;;;;1.10;1.00;;;-0.30;99.90;;;;;;5026025;28;20470;-63
2022/12/14 11:26:45;;;;;;;0.30;0.30;;;-0.30;99.90;;;;;;5025636;28;20045;-63
2022/12/14 11:29:25;;;;;;;0.77;0.77;;;-0.30;99.90;;;;;;5026942;28;20069;-63
2022/12/14 11:31:53;;;;;;;0.30;0.30;;;-0.30;99.90;;;;;;5023252;28;20128;-63
2022/12/14 11:34:39;;;;;;;0.20;0.20;;;-0.30;99.90;;;;;;5024782;28;20079;-63
2022/12/14 11:37:25;;;;;;;3.25;2.58;;;-0.20;99.90;;;;;;5023541;28;20045;-63
2022/12/14 11:40:02;;;;;;;1.95;0.85;;;0.00;99.90;;;;;;5023936;28;20053;-62
2022/12/14 11:42:28;;;;;;;0.50;0.50;;;0.10;99.90;;;;;;5025813;28;20108;-63
2022/12/14 11:45:14;;;;;;;0.20;0.20;;;0.30;99.90;;;;;;5026819;28;20058;-64
2022/12/14 11:47:39;;;;;;;0.30;0.30;;;0.40;99.90;;;;;;5027792;28;20049;-63
2022/12/14 11:50:22;;;;;;;0.60;0.60;;;0.70;99.90;;;;;;5026686;28;20045;-63
2022/12/14 11:52:48;;;;;;;0.30;0.30;;;0.90;99.90;;;;;;5026731;28;20420;-64
2022/12/14 11:55:20;;;;;;;4.10;3.80;;;0.90;99.90;;;;;;5025387;28;20033;-64
2022/12/14 11:57:53;;;;;;;0.20;0.20;;;1.10;99.90;;;;;;5027300;28;20042;-63
2022/12/14 12:00:19;;;;;;;0.20;0.20;;;1.40;99.90;;;;;;5025756;28;20049;-64
2022/12/14 12:02:59;;;;;;;0.40;0.40;;;1.40;99.90;;;;;;5025871;28;20053;-64
2022/12/14 12:05:26;;;;;;;0.28;0.28;;;1.70;99.90;;;;;;5027285;28;20676;-64
2022/12/14 12:07:55;;;;;;;1.83;1.55;;;2.00;99.90;;;;;;5025839;28;20167;-64
2022/12/14 12:10:43;;;;;;;0.40;0.40;;;2.20;99.90;;;;;;5027876;28;20045;-64
2022/12/14 12:13:36;;;;;;;0.43;0.43;;;2.60;99.90;;;;;;5028192;28;20045;-64
2022/12/14 12:16:13;;;;;;;2.17;1.65;;;2.80;99.90;;;;;;5026869;28;20516;-63
2022/12/14 12:18:46;;;;;;;0.20;0.20;;;2.90;99.90;;;;;;5026557;28;20524;-64
2022/12/14 12:21:20;;;;;;;0.55;0.55;;;3.00;99.90;;;;;;5026905;28;20046;-64
2022/12/14 12:24:13;;;;;;;0.20;0.20;;;2.90;99.90;;;;;;5024732;28;20095;-65
2022/12/14 12:26:46;;;;;;;0.83;0.83;;;2.80;99.90;;;;;;5026488;28;20045;-65
2022/12/14 12:29:15;;;;;;;0.20;0.20;;;2.80;99.90;;;;;;5030306;28;20312;-65
2022/12/14 12:31:54;;;;;;;0.30;0.30;;;3.00;99.90;;;;;;5029221;28;20496;-65
2022/12/14 12:34:28;;;;;;;0.20;0.20;;;2.90;99.90;;;;;;5030467;28;20481;-65
2022/12/14 12:36:58;;;;;;;0.20;0.20;;;3.00;99.90;;;;;;5030473;28;20425;-65
2022/12/14 12:39:24;;;;;;;0.13;0.13;;;3.10;99.90;;;;;;5030943;28;20440;-64
2022/12/14 12:42:23;;;;;;;0.17;0.17;;;3.00;99.90;;;;;;5029252;28;20045;-65
2022/12/14 12:45:00;;;;;;;0.65;0.65;;;3.10;99.90;;;;;;5028984;28;20057;-65
2022/12/14 12:47:39;;;;;;;0.50;0.50;;;3.30;99.90;;;;;;5031018;28;20049;-65
2022/12/14 12:50:28;;;;;;;0.98;0.98;;;3.10;99.90;;;;;;5029183;28;20128;-65
2022/12/14 12:53:03;;;;;;;1.00;1.00;;;3.10;99.90;;;;;;5029683;28;20188;-65
2022/12/14 12:55:34;;;;;;;1.10;1.10;;;3.20;99.90;;;;;;5028777;28;20056;-65
2022/12/14 12:58:02;;;;;;;0.63;0.63;;;3.50;99.90;;;;;;5029767;28;20049;-64
2022/12/14 13:00:29;;;;;;;3.40;2.25;;;3.70;99.90;;;;;;5029766;28;20116;-65
2022/12/14 13:03:11;;;;;;;0.38;0.38;;;3.60;99.90;;;;;;5028789;28;20560;-65
2022/12/14 13:05:40;;;;;;;0.65;0.65;;;3.90;99.90;;;;;;5030660;28;20065;-65
2022/12/14 13:08:29;;;;;;;0.40;0.40;;;4.10;99.90;;;;;;5030353;28;20053;-65
2022/12/14 13:10:59;;;;;;;0.55;0.55;;;4.00;99.90;;;;;;5028797;28;20057;-65
2022/12/14 13:13:31;;;;;;;0.52;0.52;;;4.60;99.90;;;;;;5028100;28;20046;-65
2022/12/14 13:16:10;;;;;;;0.52;0.52;;;4.60;99.90;;;;;;5028057;28;20092;-65
2022/12/14 13:18:47;;;;;;;0.50;0.50;;;5.00;99.90;;;;;;5029120;28;20045;-65
2022/12/14 13:21:34;;;;;;;0.88;0.88;;;5.00;99.90;;;;;;5028051;28;20033;-65
2022/12/14 13:24:02;;;;;;;0.20;0.20;;;5.10;99.90;;;;;;5029101;28;20534;-65